sensor_id;sensor_type;location;lat;lon;timestamp;P1;durP1;ratioP1;P2;durP2;ratioP2
23099;SDS011;53791;50.696;4.396;2023-03-23T00:01:18;2.02;;;1.40;;
23099;SDS011;53791;50.696;4.396;2023-03-23T00:03:48;2.00;;;1.40;;
23099;SDS011;53791;50.696;4.396;2023-03-23T00:06:17;1.82;;;1.35;;
23099;SDS011;53791;50.696;4.396;2023-03-23T00:08:49;1.82;;;1.20;;
23099;SDS011;53791;50.696;4.396;2023-03-23T00:11:20;1.75;;;1.20;;
23099;SDS011;53791;50.696;4.396;2023-03-23T00:13:51;3.35;;;1.77;;
23099;SDS011;53791;50.696;4.396;2023-03-23T00:16:20;1.92;;;1.37;;
23099;SDS011;53791;50.696;4.396;2023-03-23T00:18:50;1.80;;;1.30;;
23099;SDS011;53791;50.696;4.396;2023-03-23T00:21:21;2.12;;;1.27;;
23099;SDS011;53791;50.696;4.396;2023-03-23T00:23:52;2.20;;;1.45;;
23099;SDS011;53791;50.696;4.396;2023-03-23T00:26:20;3.65;;;1.72;;
23099;SDS011;53791;50.696;4.396;2023-03-23T00:28:47;2.45;;;1.72;;
23099;SDS011;53791;50.696;4.396;2023-03-23T00:31:17;3.27;;;1.87;;
23099;SDS011;53791;50.696;4.396;2023-03-23T00:33:45;2.50;;;1.20;;
23099;SDS011;53791;50.696;4.396;2023-03-23T00:36:13;2.30;;;1.70;;
23099;SDS011;53791;50.696;4.396;2023-03-23T00:38:41;1.80;;;1.25;;
23099;SDS011;53791;50.696;4.396;2023-03-23T00:41:09;2.05;;;1.30;;
23099;SDS011;53791;50.696;4.396;2023-03-23T00:43:38;2.02;;;1.40;;
23099;SDS011;53791;50.696;4.396;2023-03-23T00:46:05;2.77;;;1.42;;
23099;SDS011;53791;50.696;4.396;2023-03-23T00:48:36;2.77;;;1.77;;
23099;SDS011;53791;50.696;4.396;2023-03-23T00:51:08;1.98;;;1.40;;
23099;SDS011;53791;50.696;4.396;2023-03-23T00:53:37;2.00;;;1.47;;
23099;SDS011;53791;50.696;4.396;2023-03-23T00:56:07;2.27;;;1.35;;
23099;SDS011;53791;50.696;4.396;2023-03-23T00:58:35;2.10;;;1.40;;
23099;SDS011;53791;50.696;4.396;2023-03-23T01:01:03;2.37;;;1.70;;
23099;SDS011;53791;50.696;4.396;2023-03-23T01:03:31;1.60;;;1.02;;
23099;SDS011;53791;50.696;4.396;2023-03-23T01:06:06;4.53;;;1.85;;
23099;SDS011;53791;50.696;4.396;2023-03-23T01:08:37;1.72;;;1.10;;
23099;SDS011;53791;50.696;4.396;2023-03-23T01:11:07;2.47;;;1.62;;
23099;SDS011;53791;50.696;4.396;2023-03-23T01:13:35;2.30;;;1.50;;
23099;SDS011;53791;50.696;4.396;2023-03-23T01:16:02;2.12;;;1.32;;
23099;SDS011;53791;50.696;4.396;2023-03-23T01:18:30;1.75;;;1.20;;
23099;SDS011;53791;50.696;4.396;2023-03-23T01:20:58;1.82;;;1.12;;
23099;SDS011;53791;50.696;4.396;2023-03-23T01:23:34;2.47;;;1.50;;
23099;SDS011;53791;50.696;4.396;2023-03-23T01:26:05;2.35;;;1.67;;
23099;SDS011;53791;50.696;4.396;2023-03-23T01:28:37;1.80;;;1.20;;
23099;SDS011;53791;50.696;4.396;2023-03-23T01:31:06;2.25;;;1.45;;
23099;SDS011;53791;50.696;4.396;2023-03-23T01:33:37;3.17;;;1.92;;
23099;SDS011;53791;50.696;4.396;2023-03-23T01:36:08;1.90;;;1.40;;
23099;SDS011;53791;50.696;4.396;2023-03-23T01:38:40;1.80;;;1.30;;
23099;SDS011;53791;50.696;4.396;2023-03-23T01:41:10;2.52;;;1.47;;
23099;SDS011;53791;50.696;4.396;2023-03-23T01:43:53;2.65;;;1.70;;
23099;SDS011;53791;50.696;4.396;2023-03-23T01:46:31;2.15;;;1.22;;
23099;SDS011;53791;50.696;4.396;2023-03-23T01:49:02;2.75;;;1.30;;
23099;SDS011;53791;50.696;4.396;2023-03-23T01:51:32;3.58;;;1.80;;
23099;SDS011;53791;50.696;4.396;2023-03-23T01:54:03;2.05;;;1.55;;
23099;SDS011;53791;50.696;4.396;2023-03-23T01:56:38;2.10;;;1.45;;
23099;SDS011;53791;50.696;4.396;2023-03-23T01:59:07;1.92;;;1.27;;
23099;SDS011;53791;50.696;4.396;2023-03-23T02:01:36;1.60;;;1.02;;
23099;SDS011;53791;50.696;4.396;2023-03-23T02:04:06;2.30;;;1.45;;
23099;SDS011;53791;50.696;4.396;2023-03-23T02:06:33;1.90;;;1.30;;
23099;SDS011;53791;50.696;4.396;2023-03-23T02:09:01;2.00;;;1.30;;
23099;SDS011;53791;50.696;4.396;2023-03-23T02:11:30;2.85;;;1.75;;
23099;SDS011;53791;50.696;4.396;2023-03-23T02:13:58;1.90;;;1.40;;
23099;SDS011;53791;50.696;4.396;2023-03-23T02:31:03;1.82;;;1.10;;
23099;SDS011;53791;50.696;4.396;2023-03-23T02:33:36;3.65;;;1.75;;
23099;SDS011;53791;50.696;4.396;2023-03-23T02:38:50;1.67;;;1.15;;
23099;SDS011;53791;50.696;4.396;2023-03-23T02:41:21;1.98;;;1.32;;
23099;SDS011;53791;50.696;4.396;2023-03-23T02:43:51;1.72;;;1.20;;
23099;SDS011;53791;50.696;4.396;2023-03-23T02:46:19;3.75;;;1.35;;
23099;SDS011;53791;50.696;4.396;2023-03-23T02:48:48;2.22;;;1.40;;
23099;SDS011;53791;50.696;4.396;2023-03-23T02:51:19;1.37;;;0.93;;
23099;SDS011;53791;50.696;4.396;2023-03-23T02:53:49;1.65;;;1.05;;
23099;SDS011;53791;50.696;4.396;2023-03-23T02:56:20;1.90;;;1.17;;
23099;SDS011;53791;50.696;4.396;2023-03-23T02:58:49;2.30;;;1.42;;
23099;SDS011;53791;50.696;4.396;2023-03-23T03:03:57;1.50;;;0.90;;
23099;SDS011;53791;50.696;4.396;2023-03-23T03:06:38;2.45;;;1.47;;
23099;SDS011;53791;50.696;4.396;2023-03-23T03:09:17;5.08;;;1.55;;
23099;SDS011;53791;50.696;4.396;2023-03-23T03:11:49;1.90;;;1.40;;
23099;SDS011;53791;50.696;4.396;2023-03-23T03:14:29;1.72;;;1.17;;
23099;SDS011;53791;50.696;4.396;2023-03-23T03:17:04;1.60;;;1.00;;
23099;SDS011;53791;50.696;4.396;2023-03-23T03:19:42;2.37;;;1.25;;
23099;SDS011;53791;50.696;4.396;2023-03-23T03:22:07;3.33;;;1.67;;
23099;SDS011;53791;50.696;4.396;2023-03-23T03:24:36;2.95;;;1.72;;
23099;SDS011;53791;50.696;4.396;2023-03-23T03:27:04;3.77;;;1.75;;
23099;SDS011;53791;50.696;4.396;2023-03-23T03:29:36;2.22;;;1.05;;
23099;SDS011;53791;50.696;4.396;2023-03-23T03:32:08;3.12;;;1.52;;
23099;SDS011;53791;50.696;4.396;2023-03-23T03:34:38;1.80;;;1.10;;
23099;SDS011;53791;50.696;4.396;2023-03-23T03:37:07;2.58;;;1.37;;
23099;SDS011;53791;50.696;4.396;2023-03-23T03:39:36;2.30;;;1.10;;
23099;SDS011;53791;50.696;4.396;2023-03-23T03:42:05;1.60;;;1.07;;
23099;SDS011;53791;50.696;4.396;2023-03-23T03:44:33;2.15;;;1.07;;
23099;SDS011;53791;50.696;4.396;2023-03-23T03:47:01;8.13;;;1.22;;
23099;SDS011;53791;50.696;4.396;2023-03-23T03:49:28;2.02;;;1.22;;
23099;SDS011;53791;50.696;4.396;2023-03-23T03:51:56;2.08;;;1.00;;
23099;SDS011;53791;50.696;4.396;2023-03-23T03:54:24;1.62;;;1.10;;
23099;SDS011;53791;50.696;4.396;2023-03-23T03:56:52;1.87;;;1.15;;
23099;SDS011;53791;50.696;4.396;2023-03-23T03:59:21;2.02;;;1.35;;
23099;SDS011;53791;50.696;4.396;2023-03-23T04:01:49;3.00;;;1.82;;
23099;SDS011;53791;50.696;4.396;2023-03-23T04:04:18;2.40;;;1.60;;
23099;SDS011;53791;50.696;4.396;2023-03-23T04:06:47;1.52;;;0.93;;
23099;SDS011;53791;50.696;4.396;2023-03-23T04:09:15;1.30;;;0.78;;
23099;SDS011;53791;50.696;4.396;2023-03-23T04:11:43;2.30;;;1.40;;
23099;SDS011;53791;50.696;4.396;2023-03-23T04:14:10;4.97;;;1.87;;
23099;SDS011;53791;50.696;4.396;2023-03-23T04:16:38;1.62;;;1.07;;
23099;SDS011;53791;50.696;4.396;2023-03-23T04:19:06;5.40;;;1.45;;
23099;SDS011;53791;50.696;4.396;2023-03-23T04:21:34;2.08;;;1.20;;
23099;SDS011;53791;50.696;4.396;2023-03-23T04:24:02;3.15;;;1.22;;
23099;SDS011;53791;50.696;4.396;2023-03-23T04:26:30;1.50;;;0.93;;
23099;SDS011;53791;50.696;4.396;2023-03-23T04:28:58;1.47;;;0.90;;
23099;SDS011;53791;50.696;4.396;2023-03-23T04:31:25;2.33;;;1.22;;
23099;SDS011;53791;50.696;4.396;2023-03-23T04:33:53;1.50;;;1.00;;
23099;SDS011;53791;50.696;4.396;2023-03-23T04:36:21;1.57;;;1.00;;
23099;SDS011;53791;50.696;4.396;2023-03-23T04:38:48;1.95;;;1.17;;
23099;SDS011;53791;50.696;4.396;2023-03-23T04:41:16;1.60;;;1.00;;
23099;SDS011;53791;50.696;4.396;2023-03-23T04:43:44;1.47;;;0.80;;
23099;SDS011;53791;50.696;4.396;2023-03-23T04:46:11;1.65;;;1.05;;
23099;SDS011;53791;50.696;4.396;2023-03-23T04:48:41;1.85;;;1.17;;
23099;SDS011;53791;50.696;4.396;2023-03-23T04:51:08;5.33;;;1.12;;
23099;SDS011;53791;50.696;4.396;2023-03-23T04:53:37;2.33;;;1.22;;
23099;SDS011;53791;50.696;4.396;2023-03-23T04:56:06;1.80;;;1.05;;
23099;SDS011;53791;50.696;4.396;2023-03-23T04:58:34;1.80;;;1.15;;
23099;SDS011;53791;50.696;4.396;2023-03-23T05:01:02;2.15;;;1.20;;
23099;SDS011;53791;50.696;4.396;2023-03-23T05:03:30;1.75;;;1.17;;
23099;SDS011;53791;50.696;4.396;2023-03-23T05:06:00;2.40;;;1.22;;
23099;SDS011;53791;50.696;4.396;2023-03-23T05:08:29;1.70;;;1.10;;
23099;SDS011;53791;50.696;4.396;2023-03-23T05:10:58;8.80;;;1.10;;
23099;SDS011;53791;50.696;4.396;2023-03-23T05:13:29;1.60;;;0.90;;
23099;SDS011;53791;50.696;4.396;2023-03-23T05:15:57;1.70;;;1.12;;
23099;SDS011;53791;50.696;4.396;2023-03-23T05:18:24;1.52;;;1.10;;
23099;SDS011;53791;50.696;4.396;2023-03-23T05:20:52;1.60;;;1.02;;
23099;SDS011;53791;50.696;4.396;2023-03-23T05:23:19;2.02;;;1.12;;
23099;SDS011;53791;50.696;4.396;2023-03-23T05:25:55;2.08;;;1.37;;
23099;SDS011;53791;50.696;4.396;2023-03-23T05:28:26;1.60;;;1.00;;
23099;SDS011;53791;50.696;4.396;2023-03-23T05:30:54;1.82;;;1.20;;
23099;SDS011;53791;50.696;4.396;2023-03-23T05:33:22;1.90;;;1.20;;
23099;SDS011;53791;50.696;4.396;2023-03-23T05:35:51;1.72;;;1.12;;
23099;SDS011;53791;50.696;4.396;2023-03-23T05:38:18;1.60;;;0.90;;
23099;SDS011;53791;50.696;4.396;2023-03-23T05:40:48;2.00;;;1.30;;
23099;SDS011;53791;50.696;4.396;2023-03-23T05:43:15;2.08;;;1.15;;
23099;SDS011;53791;50.696;4.396;2023-03-23T05:45:43;2.33;;;1.35;;
23099;SDS011;53791;50.696;4.396;2023-03-23T05:48:11;1.52;;;1.02;;
23099;SDS011;53791;50.696;4.396;2023-03-23T05:50:38;2.10;;;1.25;;
23099;SDS011;53791;50.696;4.396;2023-03-23T05:53:06;2.72;;;1.35;;
23099;SDS011;53791;50.696;4.396;2023-03-23T05:55:34;1.90;;;1.10;;
23099;SDS011;53791;50.696;4.396;2023-03-23T05:58:01;2.40;;;1.40;;
23099;SDS011;53791;50.696;4.396;2023-03-23T06:00:29;1.67;;;1.10;;
23099;SDS011;53791;50.696;4.396;2023-03-23T06:02:58;1.50;;;1.00;;
23099;SDS011;53791;50.696;4.396;2023-03-23T06:05:26;2.05;;;1.35;;
23099;SDS011;53791;50.696;4.396;2023-03-23T06:07:54;2.17;;;1.50;;
23099;SDS011;53791;50.696;4.396;2023-03-23T06:10:22;3.20;;;1.35;;
23099;SDS011;53791;50.696;4.396;2023-03-23T06:12:50;3.58;;;1.95;;
23099;SDS011;53791;50.696;4.396;2023-03-23T06:15:18;1.75;;;1.15;;
23099;SDS011;53791;50.696;4.396;2023-03-23T06:17:45;1.60;;;1.10;;
23099;SDS011;53791;50.696;4.396;2023-03-23T06:20:13;1.70;;;1.02;;
23099;SDS011;53791;50.696;4.396;2023-03-23T06:22:40;2.08;;;1.30;;
23099;SDS011;53791;50.696;4.396;2023-03-23T06:25:09;2.22;;;1.30;;
23099;SDS011;53791;50.696;4.396;2023-03-23T06:27:37;23.85;;;2.02;;
23099;SDS011;53791;50.696;4.396;2023-03-23T06:30:05;1.50;;;1.00;;
23099;SDS011;53791;50.696;4.396;2023-03-23T06:32:33;2.00;;;1.22;;
23099;SDS011;53791;50.696;4.396;2023-03-23T06:35:01;1.87;;;1.40;;
23099;SDS011;53791;50.696;4.396;2023-03-23T06:37:29;1.72;;;1.07;;
23099;SDS011;53791;50.696;4.396;2023-03-23T06:39:57;2.35;;;1.27;;
23099;SDS011;53791;50.696;4.396;2023-03-23T06:42:24;1.60;;;1.05;;
23099;SDS011;53791;50.696;4.396;2023-03-23T06:44:52;2.30;;;1.55;;
23099;SDS011;53791;50.696;4.396;2023-03-23T06:47:21;8.18;;;1.40;;
23099;SDS011;53791;50.696;4.396;2023-03-23T06:49:49;1.62;;;1.12;;
23099;SDS011;53791;50.696;4.396;2023-03-23T06:52:17;1.55;;;1.00;;
23099;SDS011;53791;50.696;4.396;2023-03-23T06:54:44;2.00;;;1.17;;
23099;SDS011;53791;50.696;4.396;2023-03-23T06:57:12;2.77;;;1.57;;
23099;SDS011;53791;50.696;4.396;2023-03-23T06:59:39;2.65;;;1.50;;
23099;SDS011;53791;50.696;4.396;2023-03-23T07:02:11;2.70;;;1.52;;
23099;SDS011;53791;50.696;4.396;2023-03-23T07:04:40;1.62;;;0.93;;
23099;SDS011;53791;50.696;4.396;2023-03-23T07:07:08;4.35;;;1.47;;
23099;SDS011;53791;50.696;4.396;2023-03-23T07:09:38;1.47;;;0.90;;
23099;SDS011;53791;50.696;4.396;2023-03-23T07:12:05;1.62;;;1.05;;
23099;SDS011;53791;50.696;4.396;2023-03-23T07:14:33;2.77;;;1.42;;
23099;SDS011;53791;50.696;4.396;2023-03-23T07:17:00;1.57;;;0.93;;
23099;SDS011;53791;50.696;4.396;2023-03-23T07:19:29;4.22;;;1.55;;
23099;SDS011;53791;50.696;4.396;2023-03-23T07:21:57;3.77;;;1.40;;
23099;SDS011;53791;50.696;4.396;2023-03-23T07:24:24;1.50;;;0.98;;
23099;SDS011;53791;50.696;4.396;2023-03-23T07:26:52;1.80;;;1.15;;
23099;SDS011;53791;50.696;4.396;2023-03-23T07:29:20;1.60;;;1.05;;
23099;SDS011;53791;50.696;4.396;2023-03-23T07:31:47;1.92;;;1.25;;
23099;SDS011;53791;50.696;4.396;2023-03-23T07:34:15;2.17;;;1.37;;
23099;SDS011;53791;50.696;4.396;2023-03-23T07:36:42;2.10;;;1.55;;
23099;SDS011;53791;50.696;4.396;2023-03-23T07:39:10;2.47;;;2.05;;
23099;SDS011;53791;50.696;4.396;2023-03-23T07:41:38;2.17;;;1.92;;
23099;SDS011;53791;50.696;4.396;2023-03-23T07:44:05;2.62;;;2.42;;
23099;SDS011;53791;50.696;4.396;2023-03-23T07:46:33;2.70;;;2.50;;
23099;SDS011;53791;50.696;4.396;2023-03-23T07:49:01;2.60;;;2.40;;
23099;SDS011;53791;50.696;4.396;2023-03-23T07:51:31;2.60;;;2.40;;
23099;SDS011;53791;50.696;4.396;2023-03-23T07:53:58;2.92;;;2.47;;
23099;SDS011;53791;50.696;4.396;2023-03-23T07:56:28;2.47;;;2.27;;
23099;SDS011;53791;50.696;4.396;2023-03-23T07:58:56;2.60;;;2.40;;
23099;SDS011;53791;50.696;4.396;2023-03-23T08:01:24;4.05;;;3.02;;
23099;SDS011;53791;50.696;4.396;2023-03-23T08:03:51;2.70;;;2.50;;
23099;SDS011;53791;50.696;4.396;2023-03-23T08:06:21;2.80;;;2.60;;
23099;SDS011;53791;50.696;4.396;2023-03-23T08:08:49;2.60;;;2.40;;
23099;SDS011;53791;50.696;4.396;2023-03-23T08:11:16;2.50;;;2.30;;
23099;SDS011;53791;50.696;4.396;2023-03-23T08:13:45;3.05;;;2.58;;
23099;SDS011;53791;50.696;4.396;2023-03-23T08:16:13;2.55;;;2.35;;
23099;SDS011;53791;50.696;4.396;2023-03-23T08:18:41;2.45;;;2.25;;
23099;SDS011;53791;50.696;4.396;2023-03-23T08:21:08;2.40;;;2.20;;
23099;SDS011;53791;50.696;4.396;2023-03-23T08:23:36;2.20;;;2.00;;
23099;SDS011;53791;50.696;4.396;2023-03-23T08:26:04;2.30;;;2.10;;
23099;SDS011;53791;50.696;4.396;2023-03-23T08:28:36;2.20;;;2.00;;
23099;SDS011;53791;50.696;4.396;2023-03-23T08:31:08;2.40;;;2.20;;
23099;SDS011;53791;50.696;4.396;2023-03-23T08:33:37;2.50;;;2.27;;
23099;SDS011;53791;50.696;4.396;2023-03-23T08:36:07;2.25;;;2.05;;
23099;SDS011;53791;50.696;4.396;2023-03-23T08:38:35;22.62;;;2.70;;
23099;SDS011;53791;50.696;4.396;2023-03-23T08:43:45;2.40;;;2.12;;
23099;SDS011;53791;50.696;4.396;2023-03-23T08:46:13;2.98;;;2.67;;
23099;SDS011;53791;50.696;4.396;2023-03-23T08:48:40;2.80;;;2.60;;
23099;SDS011;53791;50.696;4.396;2023-03-23T08:51:09;2.60;;;2.40;;
23099;SDS011;53791;50.696;4.396;2023-03-23T08:53:37;2.50;;;2.30;;
23099;SDS011;53791;50.696;4.396;2023-03-23T08:56:07;2.60;;;2.40;;
23099;SDS011;53791;50.696;4.396;2023-03-23T08:58:36;2.52;;;2.33;;
23099;SDS011;53791;50.696;4.396;2023-03-23T09:01:05;2.10;;;1.90;;
23099;SDS011;53791;50.696;4.396;2023-03-23T09:03:35;2.47;;;2.22;;
23099;SDS011;53791;50.696;4.396;2023-03-23T09:06:03;2.00;;;1.80;;
23099;SDS011;53791;50.696;4.396;2023-03-23T09:08:32;2.20;;;2.00;;
23099;SDS011;53791;50.696;4.396;2023-03-23T09:11:02;2.40;;;2.15;;
23099;SDS011;53791;50.696;4.396;2023-03-23T09:13:30;2.40;;;2.00;;
23099;SDS011;53791;50.696;4.396;2023-03-23T09:15:58;2.00;;;1.80;;
23099;SDS011;53791;50.696;4.396;2023-03-23T09:18:25;2.20;;;2.00;;
23099;SDS011;53791;50.696;4.396;2023-03-23T09:20:53;2.67;;;2.27;;
23099;SDS011;53791;50.696;4.396;2023-03-23T09:23:22;2.50;;;2.30;;
23099;SDS011;53791;50.696;4.396;2023-03-23T09:25:50;2.30;;;1.92;;
23099;SDS011;53791;50.696;4.396;2023-03-23T09:28:18;3.12;;;2.20;;
23099;SDS011;53791;50.696;4.396;2023-03-23T09:30:46;2.30;;;1.77;;
23099;SDS011;53791;50.696;4.396;2023-03-23T09:33:14;2.58;;;2.20;;
23099;SDS011;53791;50.696;4.396;2023-03-23T09:35:42;2.15;;;1.95;;
23099;SDS011;53791;50.696;4.396;2023-03-23T09:38:09;2.20;;;1.90;;
23099;SDS011;53791;50.696;4.396;2023-03-23T09:40:55;2.10;;;1.90;;
23099;SDS011;53791;50.696;4.396;2023-03-23T09:43:46;2.00;;;1.70;;
23099;SDS011;53791;50.696;4.396;2023-03-23T09:48:58;2.83;;;1.87;;
23099;SDS011;53791;50.696;4.396;2023-03-23T09:54:13;2.10;;;1.80;;
23099;SDS011;53791;50.696;4.396;2023-03-23T09:56:45;2.75;;;2.22;;
23099;SDS011;53791;50.696;4.396;2023-03-23T09:59:35;2.90;;;2.05;;
23099;SDS011;53791;50.696;4.396;2023-03-23T10:02:07;2.20;;;1.90;;
23099;SDS011;53791;50.696;4.396;2023-03-23T10:04:46;1.95;;;1.65;;
23099;SDS011;53791;50.696;4.396;2023-03-23T10:07:18;1.90;;;1.62;;
23099;SDS011;53791;50.696;4.396;2023-03-23T10:09:48;2.50;;;1.70;;
23099;SDS011;53791;50.696;4.396;2023-03-23T10:12:29;2.42;;;1.90;;
23099;SDS011;53791;50.696;4.396;2023-03-23T10:17:33;2.17;;;1.82;;
23099;SDS011;53791;50.696;4.396;2023-03-23T10:25:28;2.50;;;1.60;;
23099;SDS011;53791;50.696;4.396;2023-03-23T10:27:59;2.65;;;1.75;;
23099;SDS011;53791;50.696;4.396;2023-03-23T10:30:28;2.42;;;1.70;;
23099;SDS011;53791;50.696;4.396;2023-03-23T10:33:00;1.77;;;1.37;;
23099;SDS011;53791;50.696;4.396;2023-03-23T10:35:34;6.37;;;2.47;;
23099;SDS011;53791;50.696;4.396;2023-03-23T10:38:14;2.15;;;1.60;;
23099;SDS011;53791;50.696;4.396;2023-03-23T10:40:50;1.95;;;1.30;;
23099;SDS011;53791;50.696;4.396;2023-03-23T10:43:19;2.70;;;1.60;;
23099;SDS011;53791;50.696;4.396;2023-03-23T10:45:50;2.45;;;1.80;;
23099;SDS011;53791;50.696;4.396;2023-03-23T10:48:29;3.15;;;1.90;;
23099;SDS011;53791;50.696;4.396;2023-03-23T10:50:56;2.35;;;1.90;;
23099;SDS011;53791;50.696;4.396;2023-03-23T10:53:32;1.98;;;1.50;;
23099;SDS011;53791;50.696;4.396;2023-03-23T10:56:00;3.67;;;1.95;;
23099;SDS011;53791;50.696;4.396;2023-03-23T10:58:29;2.40;;;1.82;;
23099;SDS011;53791;50.696;4.396;2023-03-23T11:00:59;1.87;;;1.30;;
23099;SDS011;53791;50.696;4.396;2023-03-23T11:03:42;1.80;;;1.35;;
23099;SDS011;53791;50.696;4.396;2023-03-23T11:06:18;4.55;;;2.35;;
23099;SDS011;53791;50.696;4.396;2023-03-23T11:08:54;2.50;;;1.77;;
23099;SDS011;53791;50.696;4.396;2023-03-23T11:14:00;2.47;;;1.50;;
23099;SDS011;53791;50.696;4.396;2023-03-23T11:16:31;2.35;;;1.80;;
23099;SDS011;53791;50.696;4.396;2023-03-23T11:19:14;2.02;;;1.42;;
23099;SDS011;53791;50.696;4.396;2023-03-23T11:21:47;1.75;;;1.15;;
23099;SDS011;53791;50.696;4.396;2023-03-23T11:24:17;2.05;;;1.52;;
23099;SDS011;53791;50.696;4.396;2023-03-23T11:26:45;2.42;;;1.55;;
23099;SDS011;53791;50.696;4.396;2023-03-23T11:29:19;2.65;;;1.77;;
23099;SDS011;53791;50.696;4.396;2023-03-23T11:31:47;2.45;;;1.55;;
23099;SDS011;53791;50.696;4.396;2023-03-23T11:34:19;2.35;;;1.82;;
23099;SDS011;53791;50.696;4.396;2023-03-23T11:36:57;1.87;;;1.40;;
23099;SDS011;53791;50.696;4.396;2023-03-23T11:39:24;2.95;;;1.72;;
23099;SDS011;53791;50.696;4.396;2023-03-23T11:41:54;3.25;;;1.87;;
23099;SDS011;53791;50.696;4.396;2023-03-23T11:44:24;5.83;;;2.55;;
23099;SDS011;53791;50.696;4.396;2023-03-23T11:52:33;3.98;;;2.17;;
23099;SDS011;53791;50.696;4.396;2023-03-23T11:55:14;1.67;;;1.17;;
23099;SDS011;53791;50.696;4.396;2023-03-23T11:57:43;33.80;;;2.02;;
23099;SDS011;53791;50.696;4.396;2023-03-23T12:00:17;1.98;;;1.30;;
23099;SDS011;53791;50.696;4.396;2023-03-23T12:05:36;6.28;;;1.72;;
23099;SDS011;53791;50.696;4.396;2023-03-23T12:08:29;1.82;;;1.20;;
23099;SDS011;53791;50.696;4.396;2023-03-23T12:13:54;4.10;;;2.37;;
23099;SDS011;53791;50.696;4.396;2023-03-23T12:19:01;11.95;;;2.22;;
23099;SDS011;53791;50.696;4.396;2023-03-23T12:24:39;1.90;;;1.40;;
23099;SDS011;53791;50.696;4.396;2023-03-23T12:32:42;1.77;;;1.27;;
23099;SDS011;53791;50.696;4.396;2023-03-23T12:35:31;3.27;;;1.42;;
23099;SDS011;53791;50.696;4.396;2023-03-23T12:49:02;3.95;;;2.10;;
23099;SDS011;53791;50.696;4.396;2023-03-23T12:51:49;2.77;;;2.05;;
23099;SDS011;53791;50.696;4.396;2023-03-23T12:54:22;2.52;;;1.55;;
23099;SDS011;53791;50.696;4.396;2023-03-23T12:56:59;1.87;;;1.40;;
23099;SDS011;53791;50.696;4.396;2023-03-23T12:59:39;1.87;;;1.27;;
23099;SDS011;53791;50.696;4.396;2023-03-23T13:02:18;3.15;;;1.47;;
23099;SDS011;53791;50.696;4.396;2023-03-23T13:05:09;1.85;;;1.12;;
23099;SDS011;53791;50.696;4.396;2023-03-23T13:07:19;1.60;;;1.00;;
23099;SDS011;53791;50.696;4.396;2023-03-23T13:09:55;3.62;;;1.70;;
23099;SDS011;53791;50.696;4.396;2023-03-23T13:12:24;1.70;;;1.10;;
23099;SDS011;53791;50.696;4.396;2023-03-23T13:14:56;1.90;;;1.20;;
23099;SDS011;53791;50.696;4.396;2023-03-23T13:20:14;1.50;;;0.90;;
23099;SDS011;53791;50.696;4.396;2023-03-23T13:22:49;2.65;;;1.82;;
23099;SDS011;53791;50.696;4.396;2023-03-23T13:25:46;3.05;;;1.55;;
23099;SDS011;53791;50.696;4.396;2023-03-23T13:28:29;5.55;;;1.70;;
23099;SDS011;53791;50.696;4.396;2023-03-23T13:31:12;3.20;;;1.72;;
23099;SDS011;53791;50.696;4.396;2023-03-23T13:33:57;1.52;;;1.00;;
23099;SDS011;53791;50.696;4.396;2023-03-23T13:36:33;2.58;;;1.65;;
23099;SDS011;53791;50.696;4.396;2023-03-23T13:39:16;2.20;;;1.25;;
23099;SDS011;53791;50.696;4.396;2023-03-23T13:41:45;2.83;;;1.70;;
23099;SDS011;53791;50.696;4.396;2023-03-23T13:44:15;3.35;;;2.22;;
23099;SDS011;53791;50.696;4.396;2023-03-23T13:49:21;2.37;;;1.55;;
23099;SDS011;53791;50.696;4.396;2023-03-23T13:51:52;1.90;;;1.40;;
23099;SDS011;53791;50.696;4.396;2023-03-23T13:54:38;1.70;;;1.22;;
23099;SDS011;53791;50.696;4.396;2023-03-23T13:57:02;2.30;;;1.52;;
23099;SDS011;53791;50.696;4.396;2023-03-23T13:59:32;2.15;;;1.47;;
23099;SDS011;53791;50.696;4.396;2023-03-23T14:10:41;1.52;;;0.90;;
23099;SDS011;53791;50.696;4.396;2023-03-23T14:13:15;2.45;;;1.22;;
23099;SDS011;53791;50.696;4.396;2023-03-23T14:15:58;1.80;;;1.12;;
23099;SDS011;53791;50.696;4.396;2023-03-23T14:18:25;2.75;;;0.98;;
23099;SDS011;53791;50.696;4.396;2023-03-23T14:20:57;2.98;;;1.20;;
23099;SDS011;53791;50.696;4.396;2023-03-23T14:23:25;2.00;;;1.05;;
23099;SDS011;53791;50.696;4.396;2023-03-23T14:25:56;1.67;;;1.00;;
23099;SDS011;53791;50.696;4.396;2023-03-23T14:28:28;1.75;;;1.17;;
23099;SDS011;53791;50.696;4.396;2023-03-23T14:30:56;1.40;;;0.80;;
23099;SDS011;53791;50.696;4.396;2023-03-23T14:33:24;1.90;;;1.00;;
23099;SDS011;53791;50.696;4.396;2023-03-23T14:35:53;2.45;;;1.50;;
23099;SDS011;53791;50.696;4.396;2023-03-23T14:38:23;3.60;;;1.20;;
23099;SDS011;53791;50.696;4.396;2023-03-23T14:40:53;2.62;;;1.40;;
23099;SDS011;53791;50.696;4.396;2023-03-23T14:43:23;1.75;;;1.00;;
23099;SDS011;53791;50.696;4.396;2023-03-23T14:45:52;2.27;;;1.25;;
23099;SDS011;53791;50.696;4.396;2023-03-23T14:48:21;1.70;;;0.95;;
23099;SDS011;53791;50.696;4.396;2023-03-23T14:50:52;2.10;;;1.50;;
23099;SDS011;53791;50.696;4.396;2023-03-23T14:53:37;2.77;;;1.32;;
23099;SDS011;53791;50.696;4.396;2023-03-23T14:56:11;1.65;;;0.95;;
23099;SDS011;53791;50.696;4.396;2023-03-23T14:58:46;3.75;;;2.25;;
23099;SDS011;53791;50.696;4.396;2023-03-23T15:01:17;2.50;;;1.62;;
23099;SDS011;53791;50.696;4.396;2023-03-23T15:03:51;2.08;;;1.07;;
23099;SDS011;53791;50.696;4.396;2023-03-23T15:06:17;3.47;;;1.77;;
23099;SDS011;53791;50.696;4.396;2023-03-23T15:08:47;1.82;;;1.05;;
23099;SDS011;53791;50.696;4.396;2023-03-23T15:13:51;1.65;;;1.00;;
23099;SDS011;53791;50.696;4.396;2023-03-23T15:16:24;1.50;;;0.90;;
23099;SDS011;53791;50.696;4.396;2023-03-23T15:18:54;2.70;;;1.98;;
23099;SDS011;53791;50.696;4.396;2023-03-23T15:21:26;1.98;;;1.42;;
23099;SDS011;53791;50.696;4.396;2023-03-23T15:24:00;2.47;;;1.62;;
23099;SDS011;53791;50.696;4.396;2023-03-23T15:26:31;1.72;;;1.10;;
23099;SDS011;53791;50.696;4.396;2023-03-23T15:29:05;1.98;;;1.30;;
23099;SDS011;53791;50.696;4.396;2023-03-23T15:31:39;1.77;;;1.10;;
23099;SDS011;53791;50.696;4.396;2023-03-23T15:34:19;3.05;;;1.60;;
23099;SDS011;53791;50.696;4.396;2023-03-23T15:36:44;12.63;;;1.92;;
23099;SDS011;53791;50.696;4.396;2023-03-23T15:39:12;1.87;;;1.27;;
23099;SDS011;53791;50.696;4.396;2023-03-23T15:41:52;1.50;;;1.00;;
23099;SDS011;53791;50.696;4.396;2023-03-23T15:44:20;2.10;;;1.45;;
23099;SDS011;53791;50.696;4.396;2023-03-23T15:46:53;13.95;;;2.02;;
23099;SDS011;53791;50.696;4.396;2023-03-23T15:49:31;1.57;;;1.07;;
23099;SDS011;53791;50.696;4.396;2023-03-23T15:51:59;2.00;;;1.45;;
23099;SDS011;53791;50.696;4.396;2023-03-23T15:54:33;1.70;;;1.22;;
23099;SDS011;53791;50.696;4.396;2023-03-23T15:57:01;1.92;;;1.27;;
23099;SDS011;53791;50.696;4.396;2023-03-23T15:59:28;1.60;;;1.12;;
23099;SDS011;53791;50.696;4.396;2023-03-23T16:01:56;2.27;;;1.65;;
23099;SDS011;53791;50.696;4.396;2023-03-23T16:04:23;2.67;;;1.37;;
23099;SDS011;53791;50.696;4.396;2023-03-23T16:06:51;2.17;;;1.55;;
23099;SDS011;53791;50.696;4.396;2023-03-23T16:09:22;3.90;;;1.95;;
23099;SDS011;53791;50.696;4.396;2023-03-23T16:11:49;4.00;;;1.42;;
23099;SDS011;53791;50.696;4.396;2023-03-23T16:14:17;2.52;;;1.55;;
23099;SDS011;53791;50.696;4.396;2023-03-23T16:16:49;2.52;;;1.92;;
23099;SDS011;53791;50.696;4.396;2023-03-23T16:19:15;1.67;;;1.17;;
23099;SDS011;53791;50.696;4.396;2023-03-23T16:21:42;2.92;;;1.82;;
23099;SDS011;53791;50.696;4.396;2023-03-23T16:24:10;2.10;;;1.50;;
23099;SDS011;53791;50.696;4.396;2023-03-23T16:26:37;5.83;;;2.00;;
23099;SDS011;53791;50.696;4.396;2023-03-23T16:29:09;1.70;;;1.10;;
23099;SDS011;53791;50.696;4.396;2023-03-23T16:31:38;2.80;;;1.77;;
23099;SDS011;53791;50.696;4.396;2023-03-23T16:34:06;3.87;;;2.05;;
23099;SDS011;53791;50.696;4.396;2023-03-23T16:36:34;2.00;;;1.40;;